RYR3WE LEBL-LMML
Flight info
| Callsign | RYR3WE |
|---|---|
| Flight time | N/A |
| Altitude | 34000 |
| Route | DIPES N725 OSPOK/N0444F350 DCT NOLVI DCT ORKUM/N0441F340 DCT ELSAG DCT ALG/N0446F350 DCT SENTI DCT RATOK DCT UPLIT M732 GZO |
| Aircraft | B738/M-SDE2E3FGHIRWXY/LB1 |
Departure
| Time | 2026-05-05 16:42 |
|---|---|
| Airport | Josep Tarradellas Barcelona-El Prat Airport (LEBL) |
Arrival
| Time | N/A |
|---|---|
| Airport | Malta International Airport (LMML) |
| Time | Latitude | Longitude | Altitude | Speed | Heading |
|---|---|---|---|---|---|
| 2026-05-05 16:17 | 41.30194 | 2.07790 | 31 ft | 0 kts | 296° |
| 2026-05-05 16:30 | 41.30190 | 2.07800 | 31 ft | 2 kts | 296° |
| 2026-05-05 16:30 | 41.30183 | 2.07818 | 31 ft | 2 kts | 296° |
| 2026-05-05 16:30 | 41.30177 | 2.07836 | 31 ft | 2 kts | 296° |
| 2026-05-05 16:30 | 41.30170 | 2.07854 | 31 ft | 2 kts | 296° |
| 2026-05-05 16:31 | 41.30164 | 2.07871 | 31 ft | 2 kts | 296° |
| 2026-05-05 16:31 | 41.30155 | 2.07888 | 31 ft | 2 kts | 319° |
| 2026-05-05 16:31 | 41.30142 | 2.07899 | 30 ft | 2 kts | 335° |
| 2026-05-05 16:31 | 41.30127 | 2.07902 | 30 ft | 2 kts | 9° |
| 2026-05-05 16:32 | 41.30114 | 2.07895 | 30 ft | 2 kts | 39° |
| 2026-05-05 16:32 | 41.30104 | 2.07879 | 30 ft | 2 kts | 70° |
| 2026-05-05 16:32 | 41.30102 | 2.07868 | 30 ft | 1 kts | 68° |
| 2026-05-05 16:32 | 41.30101 | 2.07867 | 30 ft | 0 kts | 67° |
| 2026-05-05 16:36 | 41.30103 | 2.07871 | 29 ft | 1 kts | 67° |
| 2026-05-05 16:36 | 41.30116 | 2.07916 | 30 ft | 7 kts | 77° |
| 2026-05-05 16:36 | 41.30065 | 2.07977 | 29 ft | 12 kts | 158° |
| 2026-05-05 16:37 | 41.29981 | 2.08029 | 27 ft | 14 kts | 159° |
| 2026-05-05 16:37 | 41.29887 | 2.08077 | 25 ft | 15 kts | 159° |
| 2026-05-05 16:37 | 41.29758 | 2.08142 | 23 ft | 24 kts | 156° |
| 2026-05-05 16:37 | 41.29606 | 2.08238 | 20 ft | 23 kts | 154° |
| 2026-05-05 16:38 | 41.29455 | 2.08325 | 18 ft | 22 kts | 156° |
| 2026-05-05 16:38 | 41.29314 | 2.08414 | 16 ft | 21 kts | 155° |
| 2026-05-05 16:38 | 41.29177 | 2.08495 | 14 ft | 22 kts | 155° |
| 2026-05-05 16:38 | 41.29018 | 2.08591 | 17 ft | 27 kts | 155° |
| 2026-05-05 16:39 | 41.28862 | 2.08693 | 18 ft | 14 kts | 118° |
| 2026-05-05 16:39 | 41.28894 | 2.08821 | 20 ft | 18 kts | 63° |
| 2026-05-05 16:39 | 41.28960 | 2.09020 | 21 ft | 27 kts | 66° |
| 2026-05-05 16:39 | 41.29047 | 2.09276 | 22 ft | 30 kts | 65° |
| 2026-05-05 16:40 | 41.29133 | 2.09522 | 22 ft | 28 kts | 65° |
| 2026-05-05 16:40 | 41.29212 | 2.09753 | 23 ft | 26 kts | 65° |
| 2026-05-05 16:40 | 41.29294 | 2.09959 | 24 ft | 23 kts | 60° |
| 2026-05-05 16:40 | 41.29362 | 2.10150 | 24 ft | 21 kts | 66° |
| 2026-05-05 16:41 | 41.29310 | 2.10287 | 26 ft | 17 kts | 154° |
| 2026-05-05 16:41 | 41.29213 | 2.10299 | 27 ft | 13 kts | 232° |
| 2026-05-05 16:41 | 41.29146 | 2.10109 | 27 ft | 47 kts | 246° |
| 2026-05-05 16:41 | 41.28916 | 2.09437 | 27 ft | 111 kts | 245° |
| 2026-05-05 16:42 | 41.28516 | 2.08268 | 17 ft | 166 kts | 245° |
| 2026-05-05 16:42 | 41.28003 | 2.06753 | 341 ft | 182 kts | 244° |
| 2026-05-05 16:42 | 41.27443 | 2.05269 | 1022 ft | 180 kts | 231° |
| 2026-05-05 16:42 | 41.26388 | 2.04306 | 1427 ft | 197 kts | 191° |
| 2026-05-05 16:43 | 41.24976 | 2.04398 | 1883 ft | 212 kts | 168° |
| 2026-05-05 16:43 | 41.23487 | 2.04799 | 2420 ft | 227 kts | 171° |
| 2026-05-05 16:43 | 41.21921 | 2.05096 | 3158 ft | 231 kts | 175° |
| 2026-05-05 16:43 | 41.20309 | 2.05325 | 3939 ft | 234 kts | 176° |
| 2026-05-05 16:44 | 41.18703 | 2.05538 | 4696 ft | 237 kts | 176° |
| 2026-05-05 16:44 | 41.17038 | 2.05671 | 5451 ft | 240 kts | 182° |
| 2026-05-05 16:44 | 41.15351 | 2.05621 | 6097 ft | 247 kts | 185° |
| 2026-05-05 16:44 | 41.13659 | 2.05518 | 6904 ft | 247 kts | 185° |
| 2026-05-05 16:45 | 41.11934 | 2.05418 | 7679 ft | 248 kts | 185° |
| 2026-05-05 16:45 | 41.10212 | 2.05334 | 8432 ft | 250 kts | 185° |
| 2026-05-05 16:45 | 41.08484 | 2.05258 | 9162 ft | 252 kts | 185° |
| 2026-05-05 16:45 | 41.06708 | 2.05181 | 9879 ft | 254 kts | 185° |
| 2026-05-05 16:46 | 41.04956 | 2.05101 | 10562 ft | 257 kts | 185° |
| 2026-05-05 16:46 | 41.03154 | 2.05012 | 11262 ft | 258 kts | 185° |
| 2026-05-05 16:46 | 41.01372 | 2.05012 | 11947 ft | 261 kts | 178° |
| 2026-05-05 16:46 | 40.99623 | 2.05676 | 12611 ft | 271 kts | 155° |
| 2026-05-05 16:47 | 40.98133 | 2.07336 | 13029 ft | 291 kts | 132° |
| 2026-05-05 16:47 | 40.96928 | 2.09555 | 13345 ft | 307 kts | 128° |
| 2026-05-05 16:47 | 40.95710 | 2.11929 | 13698 ft | 320 kts | 128° |
| 2026-05-05 16:47 | 40.94419 | 2.14404 | 14016 ft | 335 kts | 129° |
| 2026-05-05 16:48 | 40.93029 | 2.17012 | 14344 ft | 349 kts | 129° |
| 2026-05-05 16:48 | 40.91600 | 2.19670 | 14609 ft | 364 kts | 130° |
| 2026-05-05 16:48 | 40.90099 | 2.22455 | 14877 ft | 380 kts | 129° |
| 2026-05-05 16:48 | 40.88742 | 2.25460 | 15384 ft | 391 kts | 119° |
| 2026-05-05 16:49 | 40.87901 | 2.28903 | 15998 ft | 403 kts | 102° |
| 2026-05-05 16:49 | 40.87819 | 2.32686 | 16547 ft | 415 kts | 85° |
| 2026-05-05 16:49 | 40.88444 | 2.36383 | 17118 ft | 423 kts | 73° |
| 2026-05-05 16:49 | 40.89499 | 2.40069 | 17637 ft | 429 kts | 68° |
| 2026-05-05 16:50 | 40.90738 | 2.43700 | 18113 ft | 436 kts | 65° |
| 2026-05-05 16:50 | 40.92056 | 2.47308 | 18679 ft | 440 kts | 64° |
| 2026-05-05 16:50 | 40.93411 | 2.50951 | 19123 ft | 447 kts | 64° |
| 2026-05-05 16:50 | 40.94768 | 2.54634 | 19640 ft | 451 kts | 64° |